createdAt,value
2022-11-09T00:00:48.909Z,34.88
2022-11-09T00:03:15.739Z,29.95
2022-11-09T00:05:42.553Z,36.17
2022-11-09T00:08:11.104Z,33.58
2022-11-09T00:10:38.762Z,28.10
2022-11-09T00:13:05.729Z,28.20
2022-11-09T00:15:32.777Z,28.35
2022-11-09T00:18:03.089Z,25.52
2022-11-09T00:20:29.802Z,25.00
2022-11-09T00:22:57.019Z,25.60
2022-11-09T00:25:23.661Z,23.08
2022-11-09T00:27:50.502Z,24.80
2022-11-09T00:30:17.174Z,20.77
2022-11-09T00:32:44.615Z,20.33
2022-11-09T00:35:11.452Z,18.88
2022-11-09T00:37:38.156Z,25.25
2022-11-09T00:40:05.529Z,19.15
2022-11-09T00:42:32.292Z,20.52
2022-11-09T00:44:58.958Z,22.15
2022-11-09T00:47:25.678Z,22.17
2022-11-09T00:49:52.438Z,20.85
2022-11-09T00:52:19.125Z,15.35
2022-11-09T00:54:45.877Z,16.25
2022-11-09T00:57:13.888Z,19.02
2022-11-09T00:59:40.688Z,19.10
2022-11-09T01:02:07.382Z,19.60
2022-11-09T01:04:34.266Z,14.13
2022-11-09T01:07:00.948Z,12.80
2022-11-09T01:09:27.769Z,13.82
2022-11-09T01:11:54.447Z,11.65
2022-11-09T01:14:21.143Z,12.07
2022-11-09T01:16:47.782Z,12.63
2022-11-09T01:19:14.474Z,13.68
2022-11-09T01:21:41.210Z,16.73
2022-11-09T01:24:08.943Z,12.50
2022-11-09T01:26:36.393Z,13.43
2022-11-09T01:29:03.142Z,11.98
2022-11-09T01:31:30.031Z,10.30
2022-11-09T01:33:56.808Z,14.10
2022-11-09T01:36:24.611Z,12.85
2022-11-09T01:38:51.810Z,12.05
2022-11-09T01:41:25.173Z,10.02
2022-11-09T01:44:10.744Z,10.75
2022-11-09T01:46:54.309Z,11.20
2022-11-09T01:49:45.459Z,9.93
2022-11-09T01:52:30.081Z,9.48
2022-11-09T01:55:15.037Z,10.57
2022-11-09T01:58:00.353Z,9.52
2022-11-09T02:00:27.404Z,8.35
2022-11-09T02:03:01.511Z,9.70
2022-11-09T02:05:32.957Z,13.57
2022-11-09T02:08:01.870Z,11.93
2022-11-09T02:10:41.101Z,11.77
2022-11-09T02:13:09.778Z,9.88
2022-11-09T02:15:40.158Z,12.50
2022-11-09T02:18:09.762Z,11.95
2022-11-09T02:21:06.046Z,11.00
2022-11-09T02:23:32.749Z,10.88
2022-11-09T02:26:05.541Z,11.98
2022-11-09T02:28:32.492Z,10.93
2022-11-09T02:30:59.436Z,10.35
2022-11-09T02:33:26.171Z,13.30
2022-11-09T02:35:52.877Z,9.70
2022-11-09T02:38:19.939Z,11.18
2022-11-09T02:40:51.656Z,10.30
2022-11-09T02:43:19.716Z,11.70
2022-11-09T02:45:46.737Z,8.93
2022-11-09T02:48:13.420Z,10.63
2022-11-09T02:50:40.226Z,11.77
2022-11-09T02:53:06.991Z,10.43
2022-11-09T02:55:33.721Z,10.60
2022-11-09T02:58:00.484Z,9.75
2022-11-09T03:00:27.180Z,8.25
2022-11-09T03:02:54.144Z,8.85
2022-11-09T03:05:20.993Z,7.18
2022-11-09T03:07:47.683Z,11.02
2022-11-09T03:10:14.510Z,11.95
2022-11-09T03:12:41.224Z,10.73
2022-11-09T03:15:09.196Z,10.77
2022-11-09T03:17:36.309Z,11.55
2022-11-09T03:20:03.773Z,9.32
2022-11-09T03:22:31.187Z,9.18
2022-11-09T03:24:57.958Z,9.93
2022-11-09T03:27:24.722Z,10.55
2022-11-09T03:29:51.412Z,10.35
2022-11-09T03:32:18.274Z,10.57
2022-11-09T03:34:45.074Z,11.63
2022-11-09T03:37:11.896Z,14.05
2022-11-09T03:39:38.679Z,10.45
2022-11-09T03:42:05.432Z,7.28
2022-11-09T03:44:32.229Z,11.30
2022-11-09T03:46:58.995Z,10.65
2022-11-09T03:49:25.757Z,8.35
2022-11-09T03:51:52.549Z,11.40
2022-11-09T03:54:19.275Z,9.05
2022-11-09T03:56:45.962Z,7.50
2022-11-09T03:59:12.843Z,8.50
2022-11-09T04:01:39.636Z,8.30
2022-11-09T04:04:06.627Z,11.25
2022-11-09T04:06:33.471Z,10.45
2022-11-09T04:09:00.215Z,8.93
2022-11-09T04:11:27.003Z,10.50
2022-11-09T04:13:53.714Z,8.32
2022-11-09T04:16:20.420Z,10.55
2022-11-09T04:18:47.143Z,8.93
2022-11-09T04:21:14.312Z,7.68
2022-11-09T04:23:41.028Z,8.25
2022-11-09T04:26:07.726Z,10.68
2022-11-09T04:28:34.458Z,8.13
2022-11-09T04:31:02.370Z,8.30
2022-11-09T04:33:29.350Z,7.03
2022-11-09T04:36:00.880Z,7.65
2022-11-09T04:38:27.566Z,8.10
2022-11-09T04:40:54.328Z,6.97
2022-11-09T04:43:21.257Z,7.68
2022-11-09T04:45:48.240Z,8.23
2022-11-09T04:48:14.952Z,6.68
2022-11-09T04:50:41.634Z,8.70
2022-11-09T04:53:10.947Z,7.45
2022-11-09T04:55:38.366Z,6.72
2022-11-09T04:58:05.695Z,7.72
2022-11-09T05:00:33.109Z,9.80
2022-11-09T05:03:01.396Z,7.35
2022-11-09T05:05:29.273Z,4.75
2022-11-09T05:07:56.493Z,4.40
2022-11-09T05:10:23.433Z,10.32
2022-11-09T05:12:50.183Z,13.23
2022-11-09T05:15:16.975Z,8.82
2022-11-09T05:17:43.720Z,10.25
2022-11-09T05:20:11.131Z,8.90
2022-11-09T05:22:58.909Z,8.38
2022-11-09T05:25:25.689Z,8.73
2022-11-09T05:27:53.213Z,9.60
2022-11-09T05:30:20.196Z,9.48
2022-11-09T05:32:47.123Z,12.35
2022-11-09T05:35:14.166Z,14.30
2022-11-09T05:37:41.276Z,17.27
2022-11-09T05:40:09.425Z,14.60
2022-11-09T05:42:40.248Z,12.77
2022-11-09T05:45:40.305Z,16.45
2022-11-09T05:47:56.097Z,13.45
2022-11-09T05:50:22.815Z,16.90
2022-11-09T05:52:49.613Z,13.75
2022-11-09T05:55:16.399Z,11.68
2022-11-09T05:57:43.123Z,12.88
2022-11-09T06:00:11.262Z,14.20
2022-11-09T06:02:38.098Z,12.25
2022-11-09T06:05:05.015Z,7.28
2022-11-09T06:07:33.076Z,9.25
2022-11-09T06:09:59.793Z,6.07
2022-11-09T06:12:26.702Z,6.63
2022-11-09T06:14:53.495Z,6.43
2022-11-09T06:17:20.387Z,6.00
2022-11-09T06:19:47.098Z,5.43
2022-11-09T06:22:13.808Z,4.85
2022-11-09T06:24:40.692Z,4.60
2022-11-09T06:27:07.512Z,5.90
2022-11-09T06:29:34.220Z,6.38
2022-11-09T06:32:00.993Z,6.53
2022-11-09T06:34:27.758Z,12.00
2022-11-09T06:36:54.612Z,14.95
2022-11-09T06:39:21.565Z,14.77
2022-11-09T06:41:48.297Z,12.95
2022-11-09T06:44:15.378Z,13.50
2022-11-09T06:46:42.202Z,11.05
2022-11-09T06:49:09.317Z,12.48
2022-11-09T06:51:36.033Z,14.20
2022-11-09T06:54:02.736Z,13.20
2022-11-09T06:56:29.747Z,16.38
2022-11-09T06:58:56.487Z,13.85
2022-11-09T07:01:28.386Z,13.63
2022-11-09T07:03:55.188Z,19.15
2022-11-09T07:06:22.442Z,10.43
2022-11-09T07:08:49.386Z,12.60
2022-11-09T07:11:17.040Z,10.73
2022-11-09T07:13:43.802Z,8.93
2022-11-09T07:16:12.915Z,12.90
2022-11-09T07:18:39.798Z,9.85
2022-11-09T07:21:11.433Z,11.32
2022-11-09T07:23:41.247Z,11.35
2022-11-09T07:26:08.159Z,13.63
2022-11-09T07:28:35.844Z,9.93
2022-11-09T07:31:02.734Z,8.35
2022-11-09T07:33:32.794Z,9.23
2022-11-09T07:36:01.294Z,11.10
2022-11-09T07:38:31.547Z,7.53
2022-11-09T07:41:02.228Z,10.48
2022-11-09T07:43:29.665Z,12.05
2022-11-09T07:45:56.690Z,5.90
2022-11-09T07:48:23.933Z,7.72
2022-11-09T07:50:50.762Z,7.85
2022-11-09T07:53:18.042Z,7.40
2022-11-09T07:55:44.977Z,7.25
2022-11-09T07:58:14.078Z,7.68
2022-11-09T08:00:42.602Z,7.18
2022-11-09T08:03:09.670Z,8.98
2022-11-09T08:05:37.402Z,8.27
2022-11-09T08:08:10.380Z,7.30
2022-11-09T08:10:38.251Z,9.20
2022-11-09T08:13:14.769Z,7.07
2022-11-09T08:15:42.173Z,5.40
2022-11-09T08:18:13.489Z,7.70
2022-11-09T08:20:40.424Z,9.93
2022-11-09T08:23:07.261Z,7.15
2022-11-09T08:25:35.555Z,8.18
2022-11-09T08:28:03.672Z,8.20
2022-11-09T08:30:31.354Z,6.07
2022-11-09T08:32:59.948Z,6.18
2022-11-09T08:35:27.284Z,7.57
2022-11-09T08:37:54.597Z,7.80
2022-11-09T08:40:24.058Z,7.97
2022-11-09T08:42:51.676Z,7.43
2022-11-09T08:45:18.723Z,10.38
2022-11-09T08:47:46.005Z,7.93
2022-11-09T08:50:14.598Z,8.45
2022-11-09T08:52:41.532Z,9.50
2022-11-09T08:55:08.669Z,8.63
2022-11-09T08:57:35.463Z,7.65
2022-11-09T09:00:02.299Z,7.13
2022-11-09T09:02:29.083Z,8.85
2022-11-09T09:04:55.790Z,6.55
2022-11-09T09:07:22.726Z,7.22
2022-11-09T09:09:49.486Z,7.57
2022-11-09T09:12:16.315Z,8.10
2022-11-09T09:14:43.068Z,7.65
2022-11-09T09:17:10.086Z,8.10
2022-11-09T09:19:36.846Z,6.78
2022-11-09T09:22:03.697Z,8.18
2022-11-09T09:24:30.400Z,8.50
2022-11-09T09:26:57.131Z,7.47
2022-11-09T09:29:23.928Z,8.23
2022-11-09T09:31:51.317Z,7.13
2022-11-09T09:34:18.439Z,9.60
2022-11-09T09:36:48.217Z,8.10
2022-11-09T09:39:15.823Z,9.35
2022-11-09T09:42:04.935Z,10.73
2022-11-09T09:44:53.852Z,10.35
2022-11-09T09:47:43.229Z,12.07
2022-11-09T09:50:18.850Z,11.18
2022-11-09T09:53:23.639Z,12.32
2022-11-09T09:58:49.413Z,10.10
2022-11-09T10:01:20.183Z,10.05
2022-11-09T10:03:48.480Z,10.90
2022-11-09T10:06:40.605Z,8.77
2022-11-09T10:09:33.589Z,10.88
2022-11-09T10:12:15.360Z,7.68
2022-11-09T10:15:13.857Z,8.55
2022-11-09T10:17:49.423Z,7.45
2022-11-09T10:20:31.543Z,7.72
2022-11-09T10:23:19.425Z,6.70
2022-11-09T10:26:03.781Z,11.27
2022-11-09T10:29:01.164Z,10.13
2022-11-09T10:31:23.631Z,13.35
2022-11-09T10:33:56.069Z,14.35
2022-11-09T10:36:30.750Z,11.80
2022-11-09T10:39:01.388Z,12.10
2022-11-09T10:41:40.138Z,12.60
2022-11-09T10:44:17.303Z,10.68
2022-11-09T10:47:05.313Z,10.70
2022-11-09T10:49:33.918Z,9.65
2022-11-09T10:52:01.559Z,7.65
2022-11-09T10:54:38.219Z,8.45
2022-11-09T10:57:14.129Z,6.35
2022-11-09T10:59:54.679Z,8.48
2022-11-09T11:02:27.918Z,8.25
2022-11-09T11:05:06.984Z,8.70
2022-11-09T11:07:35.460Z,6.60
2022-11-09T11:10:15.420Z,6.90
2022-11-09T11:12:57.598Z,7.78
2022-11-09T11:15:38.618Z,7.63
2022-11-09T11:18:14.821Z,5.93
2022-11-09T11:20:41.564Z,5.88
2022-11-09T11:23:17.332Z,6.65
2022-11-09T11:26:07.340Z,6.47
2022-11-09T11:28:42.625Z,5.50
2022-11-09T11:31:15.717Z,6.50
2022-11-09T11:33:42.845Z,5.97
2022-11-09T11:36:26.997Z,8.18
2022-11-09T11:39:29.693Z,6.28
2022-11-09T11:42:20.773Z,9.90
2022-11-09T11:48:57.476Z,11.23
2022-11-09T11:51:36.649Z,6.90
2022-11-09T11:54:16.569Z,6.85
2022-11-09T11:56:52.771Z,25.13
2022-11-09T11:59:50.445Z,31.25
2022-11-09T12:02:30.740Z,27.73
2022-11-09T12:05:15.689Z,14.77
2022-11-09T12:10:24.138Z,6.43
2022-11-09T12:13:14.181Z,6.18
2022-11-09T12:15:47.093Z,6.03
2022-11-09T12:18:37.903Z,7.20
2022-11-09T12:21:17.948Z,6.05
2022-11-09T12:24:00.168Z,6.82
2022-11-09T12:27:10.722Z,7.00
2022-11-09T12:29:42.660Z,9.13
2022-11-09T12:32:46.258Z,7.10
2022-11-09T12:35:44.619Z,5.40
2022-11-09T12:38:20.822Z,4.80
2022-11-09T12:40:56.138Z,5.00
2022-11-09T12:43:31.116Z,7.82
2022-11-09T12:45:59.572Z,5.00
2022-11-09T12:48:32.155Z,6.75
2022-11-09T12:51:04.074Z,4.88
2022-11-09T12:53:35.155Z,4.57
2022-11-09T12:56:04.340Z,6.63
2022-11-09T12:58:34.285Z,5.13
2022-11-09T13:01:03.963Z,4.05
2022-11-09T13:03:33.937Z,4.40
2022-11-09T13:06:15.857Z,4.25
2022-11-09T13:08:58.747Z,4.53
2022-11-09T13:11:48.586Z,10.20
2022-11-09T13:14:29.011Z,4.68
2022-11-09T13:16:58.967Z,4.22
2022-11-09T13:19:34.969Z,4.97
2022-11-09T13:22:02.924Z,5.72
2022-11-09T13:24:34.324Z,5.18
2022-11-09T13:27:03.285Z,6.68
2022-11-09T13:29:56.271Z,5.88
2022-11-09T13:32:27.300Z,6.15
2022-11-09T13:35:02.206Z,9.48
2022-11-09T13:37:41.241Z,4.60
2022-11-09T13:40:33.040Z,5.95
2022-11-09T13:43:28.772Z,5.80
2022-11-09T13:46:05.136Z,6.15
2022-11-09T13:48:49.115Z,8.30
2022-11-09T13:51:25.939Z,7.27
2022-11-09T13:53:59.432Z,9.00
2022-11-09T13:56:40.735Z,5.68
2022-11-09T13:59:25.996Z,7.38
2022-11-09T14:01:55.144Z,6.50
2022-11-09T14:04:24.456Z,7.68
2022-11-09T14:07:03.716Z,7.03
2022-11-09T14:09:44.590Z,6.88
2022-11-09T14:12:42.731Z,4.47
2022-11-09T14:15:16.450Z,5.38
2022-11-09T14:18:20.514Z,6.13
2022-11-09T14:20:55.880Z,8.27
2022-11-09T14:23:28.213Z,7.47
2022-11-09T14:25:55.889Z,7.88
2022-11-09T14:28:31.054Z,16.02
2022-11-09T14:30:58.094Z,10.27
2022-11-09T14:33:27.746Z,9.18
2022-11-09T14:35:57.863Z,9.68
2022-11-09T14:38:46.879Z,12.77
2022-11-09T14:41:24.514Z,9.45
2022-11-09T14:43:53.446Z,11.32
2022-11-09T14:46:28.396Z,22.85
2022-11-09T14:48:59.569Z,19.48
2022-11-09T14:51:36.429Z,14.52
2022-11-09T14:54:07.671Z,14.52
2022-11-09T14:56:37.260Z,9.80
2022-11-09T14:59:08.995Z,9.82
2022-11-09T15:01:35.878Z,9.48
2022-11-09T15:04:21.372Z,12.32
2022-11-09T15:07:00.429Z,9.05
2022-11-09T15:09:43.211Z,8.98
2022-11-09T15:12:21.083Z,12.77
2022-11-09T15:14:57.105Z,6.75
2022-11-09T15:17:26.622Z,5.45
2022-11-09T15:19:59.746Z,6.68
2022-11-09T15:22:52.561Z,6.20
2022-11-09T15:25:35.453Z,8.40
2022-11-09T15:28:14.512Z,9.60
2022-11-09T15:30:46.236Z,5.70
2022-11-09T15:33:19.576Z,6.88
2022-11-09T15:35:53.397Z,4.60
2022-11-09T15:38:41.264Z,5.75
2022-11-09T15:41:16.296Z,5.18
2022-11-09T15:43:43.656Z,5.38
2022-11-09T15:46:15.821Z,7.65
2022-11-09T15:48:46.242Z,9.82
2022-11-09T15:51:14.551Z,9.18
2022-11-09T15:53:41.341Z,12.05
2022-11-09T15:56:15.616Z,11.20
2022-11-09T15:58:42.503Z,6.88
2022-11-09T16:01:10.438Z,7.80
2022-11-09T16:03:37.152Z,7.22
2022-11-09T16:06:04.019Z,13.63
2022-11-09T16:08:30.772Z,8.05
2022-11-09T16:10:58.529Z,8.40
2022-11-09T16:13:25.371Z,6.15
2022-11-09T16:15:52.335Z,6.22
2022-11-09T16:18:25.553Z,9.00
2022-11-09T16:20:52.790Z,7.40
2022-11-09T16:23:19.530Z,8.27
2022-11-09T16:25:46.268Z,6.82
2022-11-09T16:28:13.376Z,8.63
2022-11-09T16:30:45.488Z,8.90
2022-11-09T16:33:13.379Z,10.10
2022-11-09T16:35:40.169Z,8.60
2022-11-09T16:38:06.889Z,8.63
2022-11-09T16:40:33.701Z,7.75
2022-11-09T16:43:00.604Z,16.05
2022-11-09T16:45:32.096Z,9.60
2022-11-09T16:48:04.410Z,4.30
2022-11-09T16:50:31.157Z,5.97
2022-11-09T16:52:57.864Z,7.78
2022-11-09T16:55:24.782Z,6.32
2022-11-09T16:57:51.481Z,7.45
2022-11-09T17:00:23.034Z,9.65
2022-11-09T17:02:50.034Z,8.82
2022-11-09T17:05:16.854Z,7.93
2022-11-09T17:07:43.824Z,8.82
2022-11-09T17:10:11.746Z,12.35
2022-11-09T17:12:38.704Z,10.80
2022-11-09T17:15:06.014Z,7.35
2022-11-09T17:17:32.805Z,6.00
2022-11-09T17:20:01.568Z,9.73
2022-11-09T17:22:28.332Z,15.77
2022-11-09T17:24:55.166Z,21.25
2022-11-09T17:27:21.933Z,19.55
2022-11-09T17:29:49.051Z,27.85
2022-11-09T17:32:16.133Z,9.70
2022-11-09T17:34:42.938Z,12.15
2022-11-09T17:37:09.852Z,7.78
2022-11-09T17:39:36.548Z,9.52
2022-11-09T17:42:03.553Z,8.38
2022-11-09T17:44:30.315Z,6.60
2022-11-09T17:46:57.045Z,6.53
2022-11-09T17:49:23.924Z,8.43
2022-11-09T17:51:50.624Z,5.88
2022-11-09T17:54:17.346Z,6.72
2022-11-09T17:56:44.114Z,8.70
2022-11-09T17:59:12.345Z,8.43
2022-11-09T18:01:41.515Z,10.35
2022-11-09T18:04:10.487Z,9.95
2022-11-09T18:06:37.521Z,11.05
2022-11-09T18:09:39.004Z,6.97
2022-11-09T18:11:51.708Z,8.27
2022-11-09T18:14:18.531Z,9.75
2022-11-09T18:16:45.387Z,7.97
2022-11-09T18:19:12.259Z,8.07
2022-11-09T18:21:39.284Z,8.43
2022-11-09T18:24:06.396Z,9.07
2022-11-09T18:26:33.325Z,11.05
2022-11-09T18:29:00.384Z,15.05
2022-11-09T18:31:27.376Z,13.13
2022-11-09T18:33:54.340Z,9.57
2022-11-09T18:36:21.770Z,12.70
2022-11-09T18:38:51.212Z,11.00
2022-11-09T18:41:21.969Z,11.25
2022-11-09T18:43:50.273Z,17.90
2022-11-09T18:46:19.945Z,26.58
2022-11-09T18:48:51.142Z,13.85
2022-11-09T18:51:18.392Z,15.40
2022-11-09T18:53:46.805Z,22.20
2022-11-09T18:56:23.150Z,38.22
2022-11-09T18:58:53.008Z,23.10
2022-11-09T19:01:20.412Z,15.15
2022-11-09T19:03:47.191Z,24.55
2022-11-09T19:06:16.523Z,12.25
2022-11-09T19:09:02.313Z,9.10
2022-11-09T19:11:32.254Z,9.23
2022-11-09T19:13:59.132Z,8.48
2022-11-09T19:16:27.046Z,8.73
2022-11-09T19:18:54.040Z,9.32
2022-11-09T19:21:40.607Z,11.80
2022-11-09T19:24:11.074Z,10.85
2022-11-09T19:26:37.865Z,9.15
2022-11-09T19:29:06.945Z,9.45
2022-11-09T19:31:34.686Z,8.82
2022-11-09T19:34:01.383Z,8.52
2022-11-09T19:36:31.224Z,8.85
2022-11-09T19:38:58.994Z,10.13
2022-11-09T19:41:26.240Z,9.60
2022-11-09T19:43:54.878Z,11.40
2022-11-09T19:46:22.131Z,18.95
2022-11-09T19:48:49.180Z,16.55
2022-11-09T19:51:18.094Z,14.65
2022-11-09T19:53:52.811Z,11.13
2022-11-09T19:56:21.211Z,9.70
2022-11-09T19:58:49.748Z,9.70
2022-11-09T20:01:16.855Z,8.77
2022-11-09T20:03:43.777Z,8.63
2022-11-09T20:06:10.641Z,9.10
2022-11-09T20:08:37.843Z,8.45
2022-11-09T20:11:09.140Z,8.35
2022-11-09T20:13:38.902Z,8.10
2022-11-09T20:16:08.319Z,10.95
2022-11-09T20:18:36.712Z,9.63
2022-11-09T20:21:04.394Z,10.25
2022-11-09T20:23:31.325Z,11.45
2022-11-09T20:26:09.388Z,9.98
2022-11-09T20:28:36.137Z,11.20
2022-11-09T20:31:14.177Z,10.55
2022-11-09T20:33:41.127Z,9.85
2022-11-09T20:36:08.422Z,8.93
2022-11-09T20:38:35.364Z,9.88
2022-11-09T20:41:04.243Z,8.48
2022-11-09T20:43:31.302Z,11.90
2022-11-09T20:46:08.148Z,10.13
2022-11-09T20:51:22.497Z,12.27
2022-11-09T20:53:50.395Z,13.27
2022-11-09T20:56:18.346Z,11.27
2022-11-09T20:58:45.268Z,12.88
2022-11-09T21:01:15.702Z,11.13
2022-11-09T21:03:43.019Z,9.95
2022-11-09T21:06:11.369Z,9.75
2022-11-09T21:08:38.316Z,9.90
2022-11-09T21:11:07.404Z,10.10
2022-11-09T21:13:34.207Z,11.65
2022-11-09T21:16:06.171Z,10.90
2022-11-09T21:18:33.243Z,10.50
2022-11-09T21:21:08.309Z,10.10
2022-11-09T21:23:55.575Z,10.02
2022-11-09T21:26:41.749Z,10.60
2022-11-09T21:29:32.769Z,11.10
2022-11-09T21:31:59.874Z,11.50
2022-11-09T21:34:30.360Z,11.77
2022-11-09T21:36:59.549Z,10.93
2022-11-09T21:39:26.290Z,11.70
2022-11-09T21:41:53.021Z,11.40
2022-11-09T21:44:19.746Z,12.30
2022-11-09T21:46:46.680Z,12.85
2022-11-09T21:49:13.795Z,12.82
2022-11-09T21:51:41.413Z,13.18
2022-11-09T21:54:09.768Z,12.30
2022-11-09T21:56:37.106Z,12.80
2022-11-09T21:59:04.698Z,12.75
2022-11-09T22:01:31.548Z,13.13
2022-11-09T22:03:58.743Z,13.35
2022-11-09T22:06:25.925Z,17.67
2022-11-09T22:08:53.199Z,18.52
2022-11-09T22:11:46.247Z,18.08
2022-11-09T22:14:33.661Z,16.20
2022-11-09T22:17:00.729Z,14.88
2022-11-09T22:19:47.116Z,18.77
2022-11-09T22:22:14.898Z,14.88
2022-11-09T22:24:42.056Z,14.18
2022-11-09T22:27:08.932Z,15.30
2022-11-09T22:29:35.740Z,13.93
2022-11-09T22:32:02.780Z,15.95
2022-11-09T22:34:29.509Z,14.63
2022-11-09T22:36:56.326Z,13.68
2022-11-09T22:39:23.096Z,14.50
2022-11-09T22:41:50.101Z,13.50
2022-11-09T22:44:16.856Z,15.05
2022-11-09T22:46:43.754Z,14.55
2022-11-09T22:49:10.524Z,15.25
2022-11-09T22:51:37.441Z,15.43
2022-11-09T22:54:04.315Z,15.73
2022-11-09T22:56:31.016Z,15.25
2022-11-09T22:58:57.826Z,15.05
2022-11-09T23:01:24.692Z,16.55
2022-11-09T23:03:52.356Z,16.05
2022-11-09T23:06:21.515Z,17.75
2022-11-09T23:08:48.700Z,17.92
2022-11-09T23:11:20.669Z,16.38
2022-11-09T23:13:52.695Z,17.17
2022-11-09T23:16:19.964Z,18.13
2022-11-09T23:18:56.039Z,18.23
2022-11-09T23:21:31.955Z,18.83
2022-11-09T23:24:01.597Z,18.48
2022-11-09T23:26:29.413Z,21.63
2022-11-09T23:28:56.341Z,20.38
2022-11-09T23:31:27.024Z,18.63
2022-11-09T23:33:55.753Z,17.95
2022-11-09T23:36:24.688Z,17.42
2022-11-09T23:38:51.630Z,17.25
2022-11-09T23:41:18.732Z,17.08
2022-11-09T23:43:49.257Z,19.20
2022-11-09T23:46:17.174Z,17.23
2022-11-09T23:48:43.987Z,18.13
2022-11-09T23:51:11.376Z,18.38
2022-11-09T23:53:38.865Z,19.02
2022-11-09T23:56:08.753Z,18.38
2022-11-09T23:58:36.013Z,18.92
